Terminal Aerodrome Forecast
Issued by NWS

Home | Current Version | Previous Version | Text Only | Print | Product List | Glossary On
Versions: 1 2 3 4 5 6 7 8 9 10 11 12 13 14
000
FTUS45 KABQ 241120
TAFSAF
TAF
KSAF 241120Z 2412/2512 15014KT P6SM BKN025
     FM241700 16012KT P6SM SCT030 BKN080
     FM242100 17015G23KT P6SM VCTS OVC050CB
     FM250100 13020G30KT P6SM VCSH BKN050
     FM250300 15011KT P6SM BKN100=

USA.gov is the U.S. government's official web portal to all federal, state and local government web resources and services.